Time;durP1;ratioP1;P1;durP2;ratioP2;P2;SDS_P1;SDS_P2;PMS_P1;PMS_P2;Temp;Humidity;BMP_temperature;BMP_pressure;BME280_temperature;BME280_humidity;BME280_pressure;Samples;Min_cycle;Max_cycle;Signal;HPM_P1;HPM_P2
2023/04/26 00:00:01;;;;;;;322.67;139.23;;;;;;;14.01;96.00;98606.28;342999;28;1356;-78
2023/04/26 00:00:12;;;;;;;323.80;138.80;;;;;;;14.01;96.62;98592.28;340376;29;1270;-80
2023/04/26 00:00:23;;;;;;;325.48;141.23;;;;;;;14.03;96.67;98607.03;336403;29;2511;-79
2023/04/26 00:00:34;;;;;;;324.70;141.40;;;;;;;13.97;96.52;98597.78;335703;29;1065;-79
2023/04/26 00:00:45;;;;;;;328.45;143.60;;;;;;;14.05;96.34;98607.75;337944;29;2476;-81
2023/04/26 00:01:03;;;;;;;323.98;141.07;;;;;;;14.07;96.33;98608.50;335817;29;1813;-79
2023/04/26 00:01:15;;;;;;;314.92;135.70;;;;;;;14.11;96.91;98604.69;331848;29;2098;-79
2023/04/26 00:01:26;;;;;;;318.38;137.75;;;;;;;14.11;96.66;98602.06;328215;29;3119;-78
2023/04/26 00:01:37;;;;;;;319.38;138.80;;;;;;;14.10;96.56;98599.53;324743;30;873;-79
2023/04/26 00:01:47;;;;;;;323.40;143.48;;;;;;;14.11;96.73;98603.84;325672;30;1429;-79
2023/04/26 00:01:59;;;;;;;320.75;142.98;;;;;;;14.14;96.77;98609.72;327322;30;5425;-79
2023/04/26 00:02:10;;;;;;;319.40;141.60;;;;;;;14.14;96.89;98604.47;325100;30;1310;-78
2023/04/26 00:02:20;;;;;;;314.88;137.73;;;;;;;14.14;97.18;98607.09;327917;30;1452;-78
2023/04/26 00:02:31;;;;;;;317.95;139.18;;;;;;;14.14;97.25;98604.47;327967;29;4693;-78
2023/04/26 00:02:41;;;;;;;320.77;141.20;;;;;;;14.16;96.72;98607.84;326200;30;1892;-78
2023/04/26 00:02:53;;;;;;;327.90;146.40;;;;;;;14.18;97.12;98600.69;322862;30;1043;-78
2023/04/26 00:03:03;;;;;;;327.17;146.15;;;;;;;14.14;97.38;98607.09;317828;31;1503;-78
2023/04/26 00:03:14;;;;;;;328.08;146.18;;;;;;;14.04;96.76;98594.72;319612;30;2440;-78
2023/04/26 00:03:24;;;;;;;321.13;139.80;;;;;;;14.10;97.43;98603.00;317555;30;2985;-78
2023/04/26 00:03:34;;;;;;;319.20;138.68;;;;;;;14.09;97.19;98600.50;314879;31;2757;-78
2023/04/26 00:03:45;;;;;;;318.70;138.87;;;;;;;14.12;97.13;98603.75;316016;31;2806;-78
2023/04/26 00:03:56;;;;;;;320.13;139.27;;;;;;;14.13;97.34;98594.91;313496;31;1964;-78
2023/04/26 00:04:07;;;;;;;320.88;138.57;;;;;;;14.18;97.30;98602.47;310739;31;1298;-78
2023/04/26 00:04:17;;;;;;;319.83;137.82;;;;;;;14.18;97.05;98605.09;311272;31;1455;-78
2023/04/26 00:04:28;;;;;;;319.80;139.13;;;;;;;14.17;97.02;98601.63;310450;31;1847;-78
2023/04/26 00:04:38;;;;;;;319.85;139.27;;;;;;;14.17;97.39;98599.00;307809;31;2137;-79
2023/04/26 00:04:56;;;;;;;322.17;140.47;;;;;;;14.16;97.18;98602.56;307959;32;1251;-79
2023/04/26 00:05:07;;;;;;;320.13;138.00;;;;;;;14.14;97.26;98599.22;305505;32;1344;-79
2023/04/26 00:05:18;;;;;;;321.48;137.80;;;;;;;14.03;96.92;98596.50;302502;32;1532;-78
2023/04/26 00:05:28;;;;;;;319.92;139.05;;;;;;;13.97;97.14;98603.03;304875;32;3096;-78
2023/04/26 00:05:39;;;;;;;324.30;143.20;;;;;;;13.91;97.16;98598.19;300612;32;3597;-78
2023/04/26 00:05:50;;;;;;;321.92;142.68;;;;;;;13.92;97.26;98601.69;293093;33;3017;-78
2023/04/26 00:06:07;;;;;;;327.05;143.40;;;;;;;13.92;97.51;98594.63;296272;32;3243;-78
2023/04/26 00:06:17;;;;;;;324.52;139.93;;;;;;;13.99;97.54;98600.28;292209;33;1060;-78
2023/04/26 00:06:28;;;;;;;319.33;138.15;;;;;;;13.99;97.35;98589.78;290421;33;2134;-78
2023/04/26 00:06:39;;;;;;;317.20;137.73;;;;;;;14.03;97.71;98601.75;287049;33;3513;-78
2023/04/26 00:06:49;;;;;;;320.58;140.73;;;;;;;14.03;97.41;98593.88;289850;34;2381;-78
2023/04/26 00:07:00;;;;;;;322.30;140.57;;;;;;;14.01;97.38;98595.78;287907;33;3510;-78
2023/04/26 00:07:12;;;;;;;326.20;141.43;;;;;;;14.04;97.58;98600.81;285104;34;4557;-78
2023/04/26 00:07:25;;;;;;;326.40;141.75;;;;;;;14.05;97.35;98599.88;286950;34;4396;-78
2023/04/26 00:07:36;;;;;;;318.73;138.48;;;;;;;14.05;97.62;98604.28;287705;34;928;-78
2023/04/26 00:07:49;;;;;;;319.17;139.90;;;;;;;14.07;97.33;98602.38;288247;34;4276;-78
2023/04/26 00:07:59;;;;;;;322.95;141.27;;;;;;;13.99;97.61;98595.03;289479;34;4408;-78
2023/04/26 00:08:10;;;;;;;328.00;140.52;;;;;;;14.03;97.51;98603.56;284475;34;4506;-79
2023/04/26 00:08:20;;;;;;;330.47;141.53;;;;;;;13.97;97.44;98597.78;280688;35;5486;-79
2023/04/26 00:08:31;;;;;;;332.20;140.50;;;;;;;14.06;97.45;98604.19;284151;34;3619;-79
2023/04/26 00:08:42;;;;;;;328.50;142.37;;;;;;;14.04;97.72;98595.56;283711;34;3243;-79
2023/04/26 00:08:52;;;;;;;327.60;144.15;;;;;;;14.10;97.48;98603.00;282220;34;2712;-79
2023/04/26 00:09:04;;;;;;;325.23;146.27;;;;;;;14.12;97.68;98601.13;281031;35;839;-79
2023/04/26 00:09:14;;;;;;;326.27;145.27;;;;;;;14.11;97.47;98603.84;284124;34;5492;-80
2023/04/26 00:09:25;;;;;;;324.00;141.50;;;;;;;14.13;97.33;98602.78;283512;34;6593;-79
2023/04/26 00:09:35;;;;;;;322.73;139.80;;;;;;;14.12;97.26;98595.84;281726;35;1203;-79
2023/04/26 00:09:47;;;;;;;322.93;142.17;;;;;;;14.13;97.84;98592.25;280447;34;6338;-79
2023/04/26 00:09:57;;;;;;;323.10;143.18;;;;;;;14.12;97.75;98595.84;280280;34;6293;-80
2023/04/26 00:10:09;;;;;;;322.77;141.10;;;;;;;14.18;97.28;98597.19;277901;35;5828;-80
2023/04/26 00:10:19;;;;;;;324.60;141.30;;;;;;;14.17;97.57;98595.53;276596;35;789;-79
2023/04/26 00:10:30;;;;;;;323.58;140.50;;;;;;;14.18;97.80;98597.19;274834;35;6511;-78
2023/04/26 00:10:40;;;;;;;324.73;142.67;;;;;;;14.17;97.51;98599.00;276991;35;5257;-79
2023/04/26 00:10:51;;;;;;;323.35;141.15;;;;;;;14.15;97.54;98603.53;275529;35;2304;-78
2023/04/26 00:11:01;;;;;;;326.03;144.27;;;;;;;14.14;97.35;98601.00;269805;35;4561;-78
2023/04/26 00:11:12;;;;;;;325.25;144.25;;;;;;;14.13;97.22;98596.69;269036;35;6432;-78
2023/04/26 00:11:22;;;;;;;331.10;147.47;;;;;;;14.16;97.05;98599.94;268105;36;1246;-78
2023/04/26 00:11:33;;;;;;;327.63;146.15;;;;;;;14.12;96.86;98593.22;262597;37;1201;-78
2023/04/26 00:11:43;;;;;;;322.53;140.57;;;;;;;14.18;97.16;98600.69;261755;37;10242;-78
2023/04/26 00:11:53;;;;;;;319.80;139.27;;;;;;;14.15;97.06;98595.63;259782;37;9719;-78
2023/04/26 00:12:04;;;;;;;323.02;139.68;;;;;;;14.16;97.03;98596.47;260452;37;3105;-78
2023/04/26 00:13:47;;;;;;;306.99;128.15;;;;;;;14.12;97.36;98590.59;2498860;27;20258;-79
2023/04/26 00:13:58;;;;;;;311.27;133.95;;;;;;;14.14;97.02;98595.75;351601;28;1258;-79
2023/04/26 00:14:08;;;;;;;312.93;134.90;;;;;;;14.12;97.22;98595.00;348034;28;2838;-79
2023/04/26 00:14:19;;;;;;;314.55;136.70;;;;;;;14.11;97.34;98591.53;348710;28;3120;-79
2023/04/26 00:14:29;;;;;;;319.43;138.73;;;;;;;14.05;97.65;98597.22;350468;28;799;-79
2023/04/26 00:14:40;;;;;;;319.63;138.90;;;;;;;14.08;97.56;98598.81;348971;28;1368;-79
2023/04/26 00:14:50;;;;;;;319.23;138.07;;;;;;;14.08;97.90;98591.75;347876;28;944;-79
2023/04/26 00:15:00;;;;;;;315.67;137.00;;;;;;;14.10;97.53;98595.13;346734;28;3043;-79
2023/04/26 00:15:11;;;;;;;316.98;138.30;;;;;;;14.07;97.62;98590.06;346631;28;934;-79
2023/04/26 00:15:21;;;;;;;318.53;140.67;;;;;;;14.07;97.10;98592.69;350128;28;1981;-79
2023/04/26 00:15:32;;;;;;;318.98;138.25;;;;;;;14.06;97.21;98584.91;353105;28;1183;-79
2023/04/26 00:15:42;;;;;;;320.00;137.43;;;;;;;14.12;96.50;98598.47;348986;28;1219;-79
2023/04/26 00:15:52;;;;;;;317.25;133.20;;;;;;;14.11;96.91;98598.59;349828;28;896;-79
2023/04/26 00:16:04;;;;;;;313.60;133.17;;;;;;;14.12;97.01;98595.84;351194;28;1009;-79
2023/04/26 00:16:15;;;;;;;315.08;135.68;;;;;;;14.13;97.26;98597.53;345957;28;2605;-79
2023/04/26 00:16:25;;;;;;;315.90;136.20;;;;;;;14.10;97.17;98589.84;348785;28;3243;-79
2023/04/26 00:16:36;;;;;;;323.00;139.67;;;;;;;14.06;96.94;98585.75;347625;28;1304;-79
2023/04/26 00:16:46;;;;;;;323.92;139.85;;;;;;;14.09;97.43;98593.44;347518;28;2859;-79
2023/04/26 00:16:56;;;;;;;326.43;143.43;;;;;;;14.03;97.09;98579.88;347751;28;1038;-79
2023/04/26 00:17:07;;;;;;;320.77;140.43;;;;;;;14.05;97.11;98586.72;347342;28;2188;-79
2023/04/26 00:17:17;;;;;;;320.33;139.00;;;;;;;14.09;97.26;98585.53;346051;28;2263;-79
2023/04/26 00:17:28;;;;;;;319.43;138.33;;;;;;;14.10;97.45;98592.47;347240;28;4871;-79
2023/04/26 00:17:38;;;;;;;319.23;139.40;;;;;;;13.95;97.41;98586.53;347084;28;1321;-79
2023/04/26 00:17:49;;;;;;;320.33;139.77;;;;;;;13.92;97.48;98588.53;343679;28;1074;-79
2023/04/26 00:17:59;;;;;;;319.70;138.77;;;;;;;13.92;97.90;98583.25;344558;28;875;-79
2023/04/26 00:18:11;;;;;;;316.42;138.63;;;;;;;13.92;97.90;98585.91;345472;28;1133;-79
2023/04/26 00:18:21;;;;;;;317.10;140.00;;;;;;;13.91;97.79;98587.69;343022;28;1729;-79
2023/04/26 00:18:32;;;;;;;316.27;138.77;;;;;;;13.94;98.12;98589.25;341469;28;2951;-79
2023/04/26 00:18:43;;;;;;;319.63;138.93;;;;;;;13.95;98.05;98583.88;346276;28;1331;-79
2023/04/26 00:18:55;;;;;;;319.42;137.88;;;;;;;13.96;97.94;98584.72;342274;28;1329;-79
2023/04/26 00:19:05;;;;;;;317.00;134.95;;;;;;;13.98;97.88;98581.03;347382;28;1204;-79
2023/04/26 00:19:16;;;;;;;312.85;133.02;;;;;;;13.99;98.06;98584.50;343500;28;1340;-79
2023/04/26 00:19:27;;;;;;;314.90;135.40;;;;;;;13.93;97.81;98574.41;342295;28;3011;-79
2023/04/26 00:19:38;;;;;;;318.48;137.57;;;;;;;13.98;97.96;98577.56;341901;28;2888;-79
2023/04/26 00:19:49;;;;;;;325.58;141.82;;;;;;;14.02;98.02;98583.44;341019;29;857;-79
2023/04/26 00:20:00;;;;;;;324.13;141.32;;;;;;;13.99;98.13;98584.50;342044;28;959;-79
2023/04/26 00:20:12;;;;;;;324.13;142.57;;;;;;;14.02;98.11;98584.28;340577;28;1257;-79
2023/04/26 00:20:22;;;;;;;316.92;138.02;;;;;;;14.03;98.25;98582.50;337862;29;1954;-80
2023/04/26 00:20:33;;;;;;;315.90;136.03;;;;;;;14.02;98.49;98576.41;338360;29;2565;-80
2023/04/26 00:20:43;;;;;;;316.13;135.93;;;;;;;14.05;98.27;98580.59;339700;29;2947;-79
2023/04/26 00:20:53;;;;;;;321.60;139.45;;;;;;;14.01;98.34;98573.88;340769;29;1207;-79
2023/04/26 00:21:04;;;;;;;321.87;139.87;;;;;;;14.07;98.36;98583.97;341026;28;3034;-79
2023/04/26 00:21:14;;;;;;;323.00;139.48;;;;;;;14.03;97.98;98570.19;342676;28;1050;-79
2023/04/26 00:21:25;;;;;;;319.87;135.93;;;;;;;14.08;97.70;98581.22;341811;28;1725;-79
2023/04/26 00:21:35;;;;;;;320.45;138.18;;;;;;;14.04;97.90;98576.28;337493;29;2120;-79
2023/04/26 00:21:46;;;;;;;322.77;139.67;;;;;;;13.98;97.99;98572.31;337756;29;5031;-79
2023/04/26 00:21:57;;;;;;;322.80;142.82;;;;;;;14.02;97.97;98573.78;336092;29;1563;-79
2023/04/26 00:22:07;;;;;;;322.70;141.00;;;;;;;14.04;97.93;98585.03;335045;29;1507;-79
2023/04/26 00:22:18;;;;;;;322.20;140.77;;;;;;;13.98;97.89;98569.69;334420;29;1201;-79
2023/04/26 00:22:28;;;;;;;316.95;137.13;;;;;;;14.04;98.34;98582.41;339166;29;1880;-79
2023/04/26 00:22:39;;;;;;;317.63;138.77;;;;;;;14.07;98.15;98582.19;334786;29;1978;-79
2023/04/26 00:22:49;;;;;;;319.55;141.65;;;;;;;14.09;97.89;98582.91;336275;29;3344;-79
2023/04/26 00:23:00;;;;;;;320.05;141.32;;;;;;;14.10;97.69;98579.31;339120;29;2594;-79
2023/04/26 00:23:10;;;;;;;321.90;141.87;;;;;;;14.10;97.60;98581.13;338727;29;1214;-79
2023/04/26 00:23:21;;;;;;;317.08;136.88;;;;;;;14.12;97.68;98582.69;339338;29;1289;-79
2023/04/26 00:23:31;;;;;;;313.87;137.43;;;;;;;14.15;97.90;98579.84;332446;29;1222;-79
2023/04/26 00:23:42;;;;;;;314.80;138.90;;;;;;;14.14;97.71;98578.16;332254;29;1540;-79
2023/04/26 00:23:52;;;;;;;319.10;144.30;;;;;;;14.15;97.69;98574.56;337299;29;1714;-79
2023/04/26 00:24:04;;;;;;;320.77;145.10;;;;;;;14.13;97.53;98573.00;333261;29;986;-79
2023/04/26 00:24:15;;;;;;;322.26;142.96;;;;;;;14.10;97.58;98581.97;332567;29;2002;-79
2023/04/26 00:24:25;;;;;;;321.33;139.57;;;;;;;14.13;97.47;98580.91;331345;29;2104;-79
2023/04/26 00:24:36;;;;;;;316.70;136.50;;;;;;;14.12;97.72;98574.78;331989;29;967;-78
2023/04/26 00:24:46;;;;;;;317.13;137.33;;;;;;;14.14;97.22;98570.25;328188;30;889;-78
2023/04/26 00:24:56;;;;;;;314.27;136.07;;;;;;;14.13;97.30;98570.38;329312;29;1628;-78
2023/04/26 00:25:07;;;;;;;318.37;138.30;;;;;;;14.04;96.86;98577.13;329332;29;1342;-78
2023/04/26 00:25:18;;;;;;;321.33;141.63;;;;;;;14.01;97.00;98579.16;325858;30;980;-78
2023/04/26 00:25:28;;;;;;;323.40;144.27;;;;;;;13.98;97.04;98578.41;326144;30;1513;-79
2023/04/26 00:25:39;;;;;;;319.17;141.73;;;;;;;13.94;96.89;98570.84;324372;30;1892;-79
2023/04/26 00:25:49;;;;;;;318.58;139.65;;;;;;;14.01;96.93;98582.63;324492;30;943;-79
2023/04/26 00:26:00;;;;;;;318.13;137.40;;;;;;;14.01;97.20;98579.97;321657;30;2809;-79
2023/04/26 00:26:10;;;;;;;318.48;137.23;;;;;;;14.00;97.70;98580.94;323114;30;2345;-79
2023/04/26 00:26:21;;;;;;;322.37;139.80;;;;;;;14.04;97.61;98582.41;324794;30;840;-79
2023/04/26 00:26:33;;;;;;;322.27;140.43;;;;;;;14.04;97.48;98577.13;319602;30;1360;-79
2023/04/26 00:26:43;;;;;;;320.80;139.48;;;;;;;14.03;97.26;98570.19;318539;30;2721;-79
2023/04/26 00:26:54;;;;;;;323.73;141.97;;;;;;;14.06;97.16;98575.25;316545;30;2902;-79
2023/04/26 00:27:08;;;;;;;324.50;142.18;;;;;;;14.05;97.23;98578.81;319801;30;1557;-79
2023/04/26 00:27:18;;;;;;;324.88;143.30;;;;;;;14.10;97.33;98579.31;312892;31;1365;-78
2023/04/26 00:27:28;;;;;;;320.37;139.10;;;;;;;14.11;97.33;98577.53;313020;31;1463;-78
2023/04/26 00:27:39;;;;;;;318.98;137.90;;;;;;;14.05;97.22;98568.28;312800;31;2707;-79
2023/04/26 00:27:49;;;;;;;316.13;136.50;;;;;;;14.07;97.39;98581.34;314250;31;787;-79
2023/04/26 00:28:00;;;;;;;317.20;138.05;;;;;;;14.04;97.08;98582.41;310253;31;2393;-79
2023/04/26 00:28:11;;;;;;;322.10;141.75;;;;;;;14.06;97.25;98575.25;309725;31;2695;-79
2023/04/26 00:28:21;;;;;;;327.90;143.90;;;;;;;14.07;97.30;98570.81;311096;31;3356;-79
2023/04/26 00:28:31;;;;;;;327.20;142.77;;;;;;;14.07;97.54;98571.66;306429;32;1306;-79
2023/04/26 00:28:42;;;;;;;324.40;142.10;;;;;;;14.07;97.31;98574.28;307830;31;4302;-79
2023/04/26 00:28:52;;;;;;;318.53;140.93;;;;;;;14.08;97.13;98561.97;309028;31;3602;-78
2023/04/26 00:29:03;;;;;;;318.23;141.35;;;;;;;14.13;97.42;98568.59;309636;31;1366;-78
2023/04/26 00:29:13;;;;;;;319.27;140.83;;;;;;;14.13;97.03;98565.13;308215;31;3328;-79
2023/04/26 00:29:23;;;;;;;325.42;143.52;;;;;;;14.14;96.96;98565.00;305529;31;2395;-78
2023/04/26 00:29:34;;;;;;;327.17;144.73;;;;;;;14.17;97.07;98572.69;303328;32;1255;-78
2023/04/26 00:29:44;;;;;;;324.70;142.55;;;;;;;14.13;97.11;98573.00;307731;32;2423;-78
2023/04/26 00:29:55;;;;;;;321.13;140.13;;;;;;;14.12;97.16;98571.31;305968;31;2934;-78
2023/04/26 00:30:06;;;;;;;321.48;140.43;;;;;;;14.07;97.45;98582.19;304264;32;1305;-78
2023/04/26 00:30:16;;;;;;;323.67;141.40;;;;;;;14.09;97.34;98577.66;300128;32;1366;-78
2023/04/26 00:30:27;;;;;;;323.40;141.23;;;;;;;14.10;97.25;98571.44;301749;32;4242;-79
2023/04/26 00:30:40;;;;;;;322.15;141.20;;;;;;;14.10;97.12;98566.16;301438;32;4634;-79
2023/04/26 00:30:51;;;;;;;317.98;139.50;;;;;;;14.10;96.98;98566.16;300251;32;1654;-79
2023/04/26 00:31:02;;;;;;;314.63;137.95;;;;;;;14.14;97.03;98565.00;295261;33;1321;-79
2023/04/26 00:31:15;;;;;;;317.42;140.15;;;;;;;14.14;96.97;98580.78;299952;32;5505;-79
2023/04/26 00:31:25;;;;;;;322.45;143.30;;;;;;;14.11;97.09;98573.13;301217;32;4752;-79
2023/04/26 00:31:36;;;;;;;323.63;141.30;;;;;;;14.11;96.94;98570.50;300170;32;1471;-79
2023/04/26 00:31:46;;;;;;;322.37;141.67;;;;;;;14.12;97.02;98574.78;292735;33;1263;-79
2023/04/26 00:31:57;;;;;;;321.02;140.15;;;;;;;14.09;96.97;98563.66;293077;33;3584;-79
2023/04/26 00:32:07;;;;;;;322.33;143.23;;;;;;;14.09;96.98;98571.53;289436;33;4579;-79
2023/04/26 00:32:18;;;;;;;324.50;143.77;;;;;;;14.08;96.99;98577.75;289392;34;875;-79
2023/04/26 00:32:29;;;;;;;325.53;145.83;;;;;;;14.06;96.95;98563.88;288292;33;5377;-79
2023/04/26 00:32:40;;;;;;;325.85;143.13;;;;;;;14.09;97.13;98568.91;290403;33;5644;-79
2023/04/26 00:32:50;;;;;;;327.60;144.03;;;;;;;14.10;97.13;98568.81;292261;33;889;-79
2023/04/26 00:33:00;;;;;;;323.93;140.77;;;;;;;14.12;97.31;98566.06;291341;33;4832;-79
2023/04/26 00:33:11;;;;;;;323.80;141.23;;;;;;;14.15;97.29;98563.22;286823;34;7802;-78
2023/04/26 00:33:21;;;;;;;322.47;140.97;;;;;;;14.16;97.15;98565.72;284376;34;5572;-78
2023/04/26 00:33:32;;;;;;;321.95;142.00;;;;;;;14.18;97.33;98561.19;283275;34;1357;-78
2023/04/26 00:33:43;;;;;;;323.30;143.00;;;;;;;14.17;97.26;98562.16;284178;34;4138;-78
2023/04/26 00:33:53;;;;;;;321.95;142.52;;;;;;;14.16;97.21;98565.72;284387;34;6036;-78
2023/04/26 00:34:04;;;;;;;320.55;142.23;;;;;;;14.14;97.26;98565.00;281927;35;1274;-78
2023/04/26 00:34:15;;;;;;;323.23;144.53;;;;;;;14.16;97.19;98560.47;279900;35;5568;-78
2023/04/26 00:34:33;;;;;;;324.50;143.38;;;;;;;14.14;97.35;98559.75;279927;34;6550;-78
2023/04/26 00:34:44;;;;;;;325.27;141.93;;;;;;;14.19;97.17;98565.50;281316;34;7151;-78
2023/04/26 00:34:54;;;;;;;324.23;140.30;;;;;;;14.20;97.11;98563.72;278921;34;7561;-78
2023/04/26 00:35:05;;;;;;;324.10;141.25;;;;;;;14.22;97.10;98559.19;280118;35;1373;-78
2023/04/26 00:35:16;;;;;;;318.98;139.10;;;;;;;14.22;96.73;98560.03;282086;34;6102;-78
2023/04/26 00:35:26;;;;;;;317.88;139.70;;;;;;;14.24;96.88;98563.38;281537;34;9912;-78
2023/04/26 00:35:37;;;;;;;319.70;141.57;;;;;;;14.21;97.00;98557.50;280353;34;7848;-78
2023/04/26 00:35:47;;;;;;;325.80;144.02;;;;;;;14.20;96.77;98558.47;281036;35;1382;-78
2023/04/26 00:37:47;;;;;;;309.80;131.13;;;;;;;14.17;96.40;98562.16;2497733;27;20471;-78
2023/04/26 00:37:57;;;;;;;317.07;138.43;;;;;;;14.15;96.36;98552.69;353236;28;808;-78
2023/04/26 00:38:08;;;;;;;318.15;138.70;;;;;;;14.14;96.60;98558.91;348974;28;1194;-78
2023/04/26 00:38:18;;;;;;;318.67;139.60;;;;;;;14.15;96.57;98558.78;347451;28;1291;-78
2023/04/26 00:38:28;;;;;;;317.98;138.13;;;;;;;14.15;96.85;98557.94;348963;28;1309;-78
2023/04/26 00:38:40;;;;;;;318.87;139.87;;;;;;;14.16;96.74;98559.63;347422;28;1313;-78
2023/04/26 00:38:50;;;;;;;319.05;140.20;;;;;;;14.14;96.47;98556.28;348018;28;1451;-78
2023/04/26 00:39:01;;;;;;;321.00;140.15;;;;;;;14.17;96.81;98558.69;350310;28;1423;-78
2023/04/26 00:39:11;;;;;;;322.10;139.45;;;;;;;14.17;96.80;98551.63;347514;28;1440;-78
2023/04/26 00:39:22;;;;;;;319.53;138.80;;;;;;;14.17;97.03;98551.63;349004;28;1210;-78
2023/04/26 00:39:32;;;;;;;321.07;141.07;;;;;;;14.19;96.78;98551.50;350210;28;1352;-78
2023/04/26 00:39:43;;;;;;;320.52;141.77;;;;;;;14.18;97.10;98557.72;348359;28;1208;-78
2023/04/26 00:39:53;;;;;;;321.93;143.77;;;;;;;14.19;96.64;98555.00;349009;28;850;-78
2023/04/26 00:40:07;;;;;;;324.00;144.38;;;;;;;14.17;96.79;98551.63;349040;28;825;-78
2023/04/26 00:40:19;;;;;;;321.23;140.07;;;;;;;14.17;96.83;98553.41;346279;28;1449;-79
2023/04/26 00:40:30;;;;;;;315.60;136.30;;;;;;;14.12;96.83;98555.53;347919;28;1112;-79
2023/04/26 00:40:40;;;;;;;315.45;136.20;;;;;;;14.07;96.70;98553.22;348835;28;1351;-79
2023/04/26 00:40:51;;;;;;;316.60;136.07;;;;;;;14.07;96.92;98553.22;349151;28;801;-79
2023/04/26 00:41:01;;;;;;;321.88;137.75;;;;;;;14.07;96.76;98549.75;348909;28;1221;-79
2023/04/26 00:41:12;;;;;;;321.93;137.83;;;;;;;14.04;96.62;98545.56;349766;28;1363;-79
2023/04/26 00:41:23;;;;;;;321.80;140.40;;;;;;;14.04;96.61;98545.56;348856;28;1222;-78
2023/04/26 00:41:33;;;;;;;318.25;140.30;;;;;;;14.02;97.07;98542.19;350271;28;1338;-78
2023/04/26 00:41:44;;;;;;;319.23;139.20;;;;;;;14.09;96.94;98548.69;348820;28;1270;-80
2023/04/26 00:41:55;;;;;;;319.53;138.63;;;;;;;14.09;96.42;98543.44;346165;28;1221;-79
2023/04/26 00:42:05;;;;;;;322.80;141.05;;;;;;;14.09;97.00;98543.44;346309;28;912;-80
2023/04/26 00:42:15;;;;;;;324.53;143.80;;;;;;;14.11;96.69;98544.16;345399;28;1323;-79
2023/04/26 00:42:26;;;;;;;322.25;141.00;;;;;;;14.12;96.82;98543.22;345535;28;1320;-79
2023/04/26 00:42:39;;;;;;;318.00;139.93;;;;;;;14.09;96.53;98548.69;340896;28;1591;-78
2023/04/26 00:42:56;;;;;;;315.00;136.98;;;;;;;14.05;96.45;98549.03;346053;28;1337;-78
2023/04/26 00:43:06;;;;;;;319.63;139.77;;;;;;;14.02;96.48;98551.88;344807;28;1286;-78
2023/04/26 00:43:17;;;;;;;317.58;138.32;;;;;;;13.99;96.86;98545.06;342282;28;1253;-78
2023/04/26 00:43:27;;;;;;;319.33;138.33;;;;;;;14.04;96.48;98545.56;343476;28;1231;-78
2023/04/26 00:43:38;;;;;;;315.42;135.32;;;;;;;14.07;96.60;98544.50;342520;28;1224;-78
2023/04/26 00:43:49;;;;;;;317.40;136.50;;;;;;;14.07;96.07;98540.09;342079;28;1393;-78
2023/04/26 00:43:59;;;;;;;317.80;136.40;;;;;;;14.08;95.92;98541.75;341780;28;1196;-78
2023/04/26 00:44:10;;;;;;;321.30;135.85;;;;;;;14.09;96.26;98546.06;342462;28;1346;-78
2023/04/26 00:44:20;;;;;;;321.47;135.97;;;;;;;14.09;96.40;98548.69;341871;28;1218;-78
2023/04/26 00:44:30;;;;;;;321.35;139.07;;;;;;;14.06;96.50;98546.28;339448;29;1397;-78
2023/04/26 00:44:41;;;;;;;315.20;138.90;;;;;;;14.03;96.54;98543.88;338245;29;1579;-78
2023/04/26 00:44:56;;;;;;;316.13;139.23;;;;;;;14.06;96.65;98540.19;339656;29;1349;-78
2023/04/26 00:45:07;;;;;;;316.63;136.75;;;;;;;14.10;96.71;98544.28;338310;29;1401;-78
2023/04/26 00:45:17;;;;;;;322.00;139.40;;;;;;;14.10;96.25;98539.88;336017;29;1266;-78
2023/04/26 00:45:27;;;;;;;319.42;136.80;;;;;;;14.09;96.67;98543.44;337215;29;1232;-78
2023/04/26 00:45:38;;;;;;;320.70;140.20;;;;;;;14.10;96.65;98541.66;337315;29;1458;-78
2023/04/26 00:45:48;;;;;;;316.05;138.73;;;;;;;14.12;96.42;98545.00;335650;29;1275;-78
2023/04/26 00:45:59;;;;;;;319.37;140.40;;;;;;;14.13;96.50;98544.91;337729;29;1429;-78
2023/04/26 00:46:09;;;;;;;318.85;139.57;;;;;;;14.07;96.88;98534.81;337150;29;1321;-78
2023/04/26 00:46:20;;;;;;;321.43;138.70;;;;;;;14.13;96.33;98534.38;335729;29;1207;-78
2023/04/26 00:46:30;;;;;;;318.33;137.73;;;;;;;14.13;96.62;98537.00;339192;29;1584;-78
2023/04/26 00:46:41;;;;;;;320.30;136.93;;;;;;;14.11;96.54;98533.66;338722;29;1923;-78
2023/04/26 00:46:52;;;;;;;317.67;136.75;;;;;;;14.12;96.56;98535.34;335470;29;1340;-78
2023/04/26 00:47:02;;;;;;;317.20;136.75;;;;;;;14.15;96.12;98543.00;334246;29;1469;-78
2023/04/26 00:47:12;;;;;;;317.33;137.40;;;;;;;14.16;96.37;98539.41;332707;29;1216;-78
2023/04/26 00:47:26;;;;;;;320.45;140.07;;;;;;;14.14;96.20;98533.44;336425;29;1242;-78
2023/04/26 00:47:36;;;;;;;318.70;139.38;;;;;;;14.14;96.48;98533.44;338564;29;1434;-78
2023/04/26 00:47:47;;;;;;;317.88;137.93;;;;;;;14.09;96.07;98532.91;332129;29;990;-78
2023/04/26 00:47:58;;;;;;;315.38;135.63;;;;;;;14.06;95.86;98538.41;334165;29;1814;-78
2023/04/26 00:48:09;;;;;;;316.67;136.77;;;;;;;14.05;95.54;98543.78;334124;29;1853;-78
2023/04/26 00:48:19;;;;;;;319.13;140.50;;;;;;;14.01;95.62;98532.63;334613;29;882;-78
2023/04/26 00:48:30;;;;;;;325.50;144.80;;;;;;;14.07;95.75;98533.97;330399;29;2044;-78
2023/04/26 00:48:40;;;;;;;323.53;142.27;;;;;;;14.09;95.58;98539.97;326415;29;2175;-78
2023/04/26 00:48:50;;;;;;;322.27;140.25;;;;;;;14.09;95.72;98532.91;329397;30;1326;-78
2023/04/26 00:49:01;;;;;;;315.63;137.43;;;;;;;14.09;95.71;98540.81;329865;29;1367;-78
2023/04/26 00:49:15;;;;;;;315.45;138.05;;;;;;;14.10;95.69;98539.03;326765;30;1410;-78
2023/04/26 00:49:26;;;;;;;314.35;136.20;;;;;;;14.10;95.69;98528.50;326178;30;1379;-78
2023/04/26 00:49:36;;;;;;;318.60;138.93;;;;;;;14.12;96.08;98532.69;324235;30;2006;-79
2023/04/26 00:49:46;;;;;;;319.60;141.15;;;;;;;14.12;95.82;98529.22;323416;30;1315;-79
2023/04/26 00:49:57;;;;;;;321.90;142.60;;;;;;;14.15;95.65;98531.63;328908;29;2218;-79
2023/04/26 00:50:07;;;;;;;318.42;139.02;;;;;;;14.14;95.73;98530.78;330213;29;2258;-79
2023/04/26 00:50:18;;;;;;;321.47;141.07;;;;;;;14.14;95.90;98528.16;325292;30;1231;-79
2023/04/26 00:50:29;;;;;;;319.98;139.63;;;;;;;14.18;95.67;98534.88;325371;30;2399;-78
2023/04/26 00:50:39;;;;;;;324.13;142.70;;;;;;;14.22;95.89;98541.59;322508;30;2732;-78
2023/04/26 00:50:49;;;;;;;322.13;143.37;;;;;;;14.20;95.68;98537.41;322151;30;1343;-78
2023/04/26 00:51:00;;;;;;;321.37;141.77;;;;;;;14.20;95.57;98530.34;320666;30;2704;-78
2023/04/26 00:51:10;;;;;;;316.20;138.00;;;;;;;14.19;95.66;98526.03;320598;30;1987;-78
2023/04/26 00:51:21;;;;;;;316.57;135.97;;;;;;;14.20;95.57;98525.09;322024;30;1225;-78
2023/04/26 00:51:31;;;;;;;318.20;137.68;;;;;;;14.20;95.56;98535.63;318665;31;1331;-78
2023/04/26 00:51:44;;;;;;;322.23;141.17;;;;;;;14.13;95.22;98538.81;317712;30;1762;-78
2023/04/26 00:51:55;;;;;;;321.17;140.57;;;;;;;14.07;95.51;98534.81;318127;30;2572;-78
2023/04/26 00:52:05;;;;;;;320.40;140.70;;;;;;;14.10;95.60;98529.34;315222;31;1269;-78
2023/04/26 00:52:15;;;;;;;323.07;143.37;;;;;;;14.14;95.53;98535.22;316954;31;3062;-78
2023/04/26 00:52:26;;;;;;;324.27;143.85;;;;;;;14.14;95.50;98535.22;314376;31;3326;-78
2023/04/26 00:52:37;;;;;;;323.70;143.13;;;;;;;14.13;95.53;98529.13;311996;31;3919;-78
2023/04/26 00:52:47;;;;;;;321.80;141.03;;;;;;;14.13;95.90;98537.00;307652;32;882;-78
2023/04/26 00:52:58;;;;;;;322.27;140.90;;;;;;;14.14;95.87;98528.16;311808;31;3439;-78
2023/04/26 00:53:09;;;;;;;320.30;139.55;;;;;;;14.14;95.56;98529.97;308168;31;3377;-78